createdAt,value
2022-09-12T00:00:49.512Z,13.56
2022-09-12T00:03:17.402Z,13.59
2022-09-12T00:05:47.961Z,13.62
2022-09-12T00:08:15.637Z,13.59
2022-09-12T00:10:45.528Z,13.60
2022-09-12T00:13:13.138Z,13.57
2022-09-12T00:15:44.039Z,13.54
2022-09-12T00:18:15.129Z,13.40
2022-09-12T00:20:44.429Z,13.24
2022-09-12T00:23:12.000Z,13.24
2022-09-12T00:25:43.359Z,13.18
2022-09-12T00:28:11.256Z,13.08
2022-09-12T00:30:42.075Z,13.04
2022-09-12T00:33:10.223Z,13.04
2022-09-12T00:35:44.334Z,13.04
2022-09-12T00:38:11.963Z,13.01
2022-09-12T00:40:39.599Z,12.91
2022-09-12T00:43:07.436Z,12.74
2022-09-12T00:45:35.061Z,12.73
2022-09-12T00:48:04.326Z,12.77
2022-09-12T00:50:32.913Z,12.74
2022-09-12T00:53:04.603Z,12.73
2022-09-12T00:55:36.466Z,12.65
2022-09-12T00:58:07.654Z,12.59
2022-09-12T01:00:35.237Z,12.63
2022-09-12T01:03:06.886Z,12.56
2022-09-12T01:05:36.369Z,12.43
2022-09-12T01:08:06.526Z,12.39
2022-09-12T01:10:36.565Z,12.36
2022-09-12T01:13:06.767Z,12.15
2022-09-12T01:15:34.923Z,12.15
2022-09-12T01:18:12.430Z,12.24
2022-09-12T01:20:51.401Z,12.19
2022-09-12T01:23:48.983Z,12.32
2022-09-12T01:27:10.372Z,12.35
2022-09-12T01:30:23.465Z,12.31
2022-09-12T01:33:10.185Z,12.37
2022-09-12T01:35:45.822Z,12.36
2022-09-12T01:38:20.656Z,12.35
2022-09-12T01:40:53.140Z,12.31
2022-09-12T01:43:26.247Z,12.35
2022-09-12T01:45:59.436Z,12.33
2022-09-12T01:48:31.245Z,12.40
2022-09-12T01:51:03.876Z,12.48
2022-09-12T01:53:36.669Z,12.39
2022-09-12T01:56:08.121Z,12.36
2022-09-12T01:58:42.741Z,12.42
2022-09-12T02:01:15.024Z,12.43
2022-09-12T02:03:45.667Z,12.38
2022-09-12T02:06:16.966Z,12.35
2022-09-12T02:08:47.681Z,12.21
2022-09-12T02:11:15.404Z,12.23
2022-09-12T02:13:44.284Z,12.22
2022-09-12T02:16:17.567Z,12.15
2022-09-12T02:18:47.402Z,12.13
2022-09-12T02:21:15.130Z,12.16
2022-09-12T02:23:46.102Z,12.20
2022-09-12T02:26:20.218Z,12.21
2022-09-12T02:28:48.899Z,12.16
2022-09-12T02:31:23.342Z,12.08
2022-09-12T02:34:01.903Z,12.10
2022-09-12T02:36:34.951Z,12.00
2022-09-12T02:39:02.535Z,12.05
2022-09-12T02:41:30.057Z,12.11
2022-09-12T02:43:57.979Z,12.11
2022-09-12T02:46:30.914Z,12.12
2022-09-12T02:48:58.654Z,12.13
2022-09-12T02:51:27.136Z,12.06
2022-09-12T02:53:54.881Z,12.03
2022-09-12T02:56:24.964Z,12.02
2022-09-12T02:58:53.121Z,12.08
2022-09-12T03:01:31.022Z,12.09
2022-09-12T03:04:16.919Z,11.97
2022-09-12T03:06:51.019Z,12.03
2022-09-12T03:09:22.469Z,12.07
2022-09-12T03:12:08.303Z,12.06
2022-09-12T03:15:01.574Z,12.05
2022-09-12T03:17:43.137Z,12.00
2022-09-12T03:20:12.878Z,11.82
2022-09-12T03:22:51.040Z,11.87
2022-09-12T03:25:20.261Z,11.88
2022-09-12T03:27:55.781Z,11.83
2022-09-12T03:30:23.409Z,11.72
2022-09-12T03:32:54.309Z,11.61
2022-09-12T03:35:24.285Z,11.53
2022-09-12T03:37:53.143Z,11.49
2022-09-12T03:40:21.272Z,11.36
2022-09-12T03:42:48.829Z,11.27
2022-09-12T03:45:16.724Z,11.31
2022-09-12T03:47:44.208Z,11.31
2022-09-12T03:50:13.071Z,11.28
2022-09-12T03:52:40.549Z,11.30
2022-09-12T03:55:08.560Z,11.25
2022-09-12T03:57:36.093Z,11.25
2022-09-12T04:00:05.321Z,11.24
2022-09-12T04:02:40.049Z,11.23
2022-09-12T04:05:07.913Z,11.27
2022-09-12T04:07:36.820Z,11.19
2022-09-12T04:10:05.058Z,10.99
2022-09-12T04:12:32.508Z,11.01
2022-09-12T04:14:59.970Z,11.04
2022-09-12T04:17:27.494Z,11.11
2022-09-12T04:19:54.951Z,11.11
2022-09-12T04:22:24.564Z,11.14
2022-09-12T04:24:53.378Z,11.17
2022-09-12T04:27:20.841Z,11.20
2022-09-12T04:29:48.541Z,11.20
2022-09-12T04:32:16.024Z,11.23
2022-09-12T04:34:43.554Z,11.23
2022-09-12T04:37:11.657Z,11.15
2022-09-12T04:39:39.280Z,11.13
2022-09-12T04:42:08.349Z,11.12
2022-09-12T04:44:35.865Z,11.12
2022-09-12T04:47:03.329Z,11.15
2022-09-12T04:49:30.888Z,11.16
2022-09-12T04:52:00.785Z,11.15
2022-09-12T04:54:28.230Z,11.21
2022-09-12T04:56:55.901Z,11.19
2022-09-12T04:59:25.386Z,11.24
2022-09-12T05:01:52.923Z,11.06
2022-09-12T05:04:21.677Z,11.17
2022-09-12T05:06:49.518Z,11.32
2022-09-12T05:09:17.241Z,11.29
2022-09-12T05:14:35.032Z,11.47
2022-09-12T05:17:03.042Z,11.58
2022-09-12T05:19:31.909Z,11.64
2022-09-12T05:21:59.764Z,11.71
2022-09-12T05:24:27.314Z,11.68
2022-09-12T05:26:54.780Z,11.70
2022-09-12T05:29:22.353Z,11.70
2022-09-12T05:31:52.137Z,11.80
2022-09-12T05:34:20.213Z,11.92
2022-09-12T05:36:47.812Z,12.01
2022-09-12T05:39:15.633Z,12.08
2022-09-12T05:41:43.113Z,12.10
2022-09-12T05:44:13.965Z,12.28
2022-09-12T05:46:43.770Z,12.41
2022-09-12T05:49:14.413Z,12.39
2022-09-12T05:51:43.546Z,12.35
2022-09-12T05:54:13.089Z,12.21
2022-09-12T05:56:42.363Z,12.35
2022-09-12T05:59:13.151Z,12.62
2022-09-12T06:01:41.062Z,12.66
2022-09-12T06:04:08.829Z,12.83
2022-09-12T06:06:41.501Z,12.70
2022-09-12T06:09:09.517Z,12.96
2022-09-12T06:11:40.679Z,12.93
2022-09-12T06:14:09.791Z,13.07
2022-09-12T06:16:38.089Z,13.29
2022-09-12T06:19:07.802Z,13.46
2022-09-12T06:21:35.877Z,13.53
2022-09-12T06:24:05.097Z,13.76
2022-09-12T06:26:33.169Z,13.87
2022-09-12T06:29:01.429Z,14.04
2022-09-12T06:31:30.897Z,14.19
2022-09-12T06:34:00.941Z,14.39
2022-09-12T06:36:29.957Z,14.83
2022-09-12T06:38:58.331Z,15.14
2022-09-12T06:41:27.223Z,15.72
2022-09-12T06:43:54.977Z,16.06
2022-09-12T06:46:22.668Z,16.04
2022-09-12T06:48:50.444Z,16.49
2022-09-12T06:51:19.968Z,16.89
2022-09-12T06:53:48.290Z,17.15
2022-09-12T06:56:17.044Z,17.50
2022-09-12T06:58:46.945Z,17.82
2022-09-12T07:01:16.565Z,18.12
2022-09-12T07:03:46.011Z,18.58
2022-09-12T07:06:15.815Z,19.06
2022-09-12T07:08:43.688Z,19.20
2022-09-12T07:11:13.150Z,19.16
2022-09-12T07:13:41.008Z,19.39
2022-09-12T07:16:10.521Z,19.76
2022-09-12T07:18:39.512Z,19.99
2022-09-12T07:21:08.585Z,20.48
2022-09-12T07:23:36.022Z,20.82
2022-09-12T07:26:04.039Z,21.07
2022-09-12T07:28:33.293Z,21.38
2022-09-12T07:31:06.601Z,21.49
2022-09-12T07:33:35.966Z,22.31
2022-09-12T07:36:04.743Z,22.27
2022-09-12T07:38:32.477Z,22.46
2022-09-12T07:41:01.086Z,22.53
2022-09-12T07:43:28.781Z,22.86
2022-09-12T07:45:56.868Z,22.87
2022-09-12T07:48:24.713Z,22.70
2022-09-12T07:51:00.617Z,22.86
2022-09-12T07:53:31.543Z,22.85
2022-09-12T07:55:59.162Z,22.95
2022-09-12T07:58:26.989Z,22.85
2022-09-12T08:00:54.918Z,22.80
2022-09-12T08:03:22.440Z,22.25
2022-09-12T08:05:49.903Z,22.57
2022-09-12T08:08:18.843Z,22.73
2022-09-12T08:10:46.520Z,22.63
2022-09-12T08:13:13.975Z,22.56
2022-09-12T08:15:41.586Z,22.80
2022-09-12T08:18:09.354Z,22.71
2022-09-12T08:20:37.039Z,22.91
2022-09-12T08:23:04.905Z,23.21
2022-09-12T08:25:34.560Z,23.28
2022-09-12T08:28:02.517Z,22.88
2022-09-12T08:30:30.131Z,22.78
2022-09-12T08:32:57.682Z,22.74
2022-09-12T08:35:25.168Z,22.84
2022-09-12T08:37:52.629Z,22.86
2022-09-12T08:40:20.407Z,22.62
2022-09-12T08:42:55.740Z,22.83
2022-09-12T08:45:28.066Z,22.59
2022-09-12T08:47:56.747Z,22.68
2022-09-12T08:50:29.268Z,22.66
2022-09-12T08:52:59.217Z,22.66
2022-09-12T08:55:34.511Z,22.69
2022-09-12T08:58:10.977Z,22.80
2022-09-12T09:00:44.678Z,22.77
2022-09-12T09:03:32.815Z,22.88
2022-09-12T09:06:08.342Z,22.31
2022-09-12T09:08:46.217Z,22.15
2022-09-12T09:11:39.128Z,22.51
2022-09-12T09:14:40.038Z,22.54
2022-09-12T09:17:10.093Z,22.34
2022-09-12T09:19:39.198Z,22.80
2022-09-12T09:22:10.873Z,23.04
2022-09-12T09:24:40.560Z,23.03
2022-09-12T09:27:37.024Z,23.23
2022-09-12T09:30:01.425Z,23.56
2022-09-12T09:32:32.289Z,23.66
2022-09-12T09:34:59.881Z,23.72
2022-09-12T09:37:33.083Z,23.89
2022-09-12T09:40:08.193Z,23.99
2022-09-12T09:42:40.930Z,24.36
2022-09-12T09:45:16.568Z,24.05
2022-09-12T09:47:46.257Z,24.19
2022-09-12T09:50:16.729Z,24.02
2022-09-12T09:52:44.458Z,24.29
2022-09-12T09:55:16.730Z,24.68
2022-09-12T09:57:46.669Z,24.84
2022-09-12T10:00:34.831Z,24.70
2022-09-12T10:03:06.275Z,24.75
2022-09-12T10:05:38.221Z,24.48
2022-09-12T10:08:08.247Z,24.50
2022-09-12T10:10:35.743Z,24.31
2022-09-12T10:13:10.138Z,24.24
2022-09-12T10:15:39.099Z,24.48
2022-09-12T10:18:06.933Z,24.61
2022-09-12T10:20:37.270Z,24.68
2022-09-12T10:23:24.727Z,25.05
2022-09-12T10:25:55.348Z,25.22
2022-09-12T10:28:33.520Z,25.04
2022-09-12T10:31:02.883Z,24.58
2022-09-12T10:33:31.586Z,24.61
2022-09-12T10:35:59.303Z,24.76
2022-09-12T10:38:28.745Z,24.99
2022-09-12T10:40:58.019Z,24.93
2022-09-12T10:43:28.554Z,24.79
2022-09-12T10:45:58.491Z,24.52
2022-09-12T10:48:31.636Z,24.82
2022-09-12T10:50:59.928Z,24.79
2022-09-12T10:53:32.383Z,25.32
2022-09-12T10:56:07.916Z,24.74
2022-09-12T10:58:55.921Z,25.01
2022-09-12T11:01:34.736Z,25.18
2022-09-12T11:04:20.181Z,24.82
2022-09-12T11:06:56.381Z,25.01
2022-09-12T11:09:28.451Z,25.15
2022-09-12T11:12:04.562Z,25.49
2022-09-12T11:14:41.638Z,25.74
2022-09-12T11:17:23.501Z,25.42
2022-09-12T11:20:17.617Z,25.83
2022-09-12T11:23:01.915Z,25.72
2022-09-12T11:25:32.384Z,25.23
2022-09-12T11:28:26.845Z,25.24
2022-09-12T11:31:04.492Z,25.33
2022-09-12T11:33:43.348Z,25.41
2022-09-12T11:36:24.849Z,25.51
2022-09-12T11:38:54.368Z,25.77
2022-09-12T11:41:29.366Z,25.89
2022-09-12T11:44:01.338Z,25.95
2022-09-12T11:46:32.025Z,26.06
2022-09-12T11:49:02.692Z,25.97
2022-09-12T11:51:35.934Z,25.49
2022-09-12T11:54:07.884Z,25.54
2022-09-12T11:56:39.169Z,25.79
2022-09-12T11:59:13.339Z,25.42
2022-09-12T12:01:48.342Z,25.67
2022-09-12T12:04:18.268Z,25.97
2022-09-12T12:06:53.405Z,26.12
2022-09-12T12:09:21.241Z,26.37
2022-09-12T12:11:50.920Z,25.50
2022-09-12T12:14:21.030Z,26.10
2022-09-12T12:16:49.340Z,25.87
2022-09-12T12:19:33.658Z,26.36
2022-09-12T12:22:09.887Z,26.61
2022-09-12T12:25:05.454Z,26.34
2022-09-12T12:27:54.191Z,26.50
2022-09-12T12:30:55.126Z,26.04
2022-09-12T12:34:11.578Z,25.61
2022-09-12T12:36:43.346Z,25.97
2022-09-12T12:39:44.369Z,26.65
2022-09-12T12:43:06.079Z,26.99
2022-09-12T12:46:08.331Z,26.90
2022-09-12T12:48:57.013Z,26.72
2022-09-12T12:51:37.851Z,27.21
2022-09-12T12:54:12.336Z,27.34
2022-09-12T12:56:42.084Z,27.34
2022-09-12T12:59:18.699Z,27.57
2022-09-12T13:01:52.815Z,27.24
2022-09-12T13:04:24.519Z,26.93
2022-09-12T13:06:59.281Z,26.91
2022-09-12T13:09:29.992Z,27.06
2022-09-12T13:12:02.462Z,27.48
2022-09-12T13:14:52.693Z,28.02
2022-09-12T13:17:25.178Z,28.61
2022-09-12T13:20:16.855Z,28.40
2022-09-12T13:22:44.585Z,29.00
2022-09-12T13:25:21.625Z,27.68
2022-09-12T13:27:58.824Z,27.04
2022-09-12T13:30:28.405Z,27.20
2022-09-12T13:32:58.681Z,26.58
2022-09-12T13:35:33.528Z,26.42
2022-09-12T13:38:04.894Z,26.61
2022-09-12T13:40:37.536Z,26.32
2022-09-12T13:43:15.786Z,26.95
2022-09-12T13:45:47.047Z,27.51
2022-09-12T13:48:16.669Z,26.82
2022-09-12T13:50:49.438Z,27.50
2022-09-12T13:53:18.870Z,27.65
2022-09-12T13:55:48.992Z,27.37
2022-09-12T13:58:18.472Z,27.83
2022-09-12T14:00:47.980Z,27.97
2022-09-12T14:03:46.201Z,27.72
2022-09-12T14:06:16.459Z,27.21
2022-09-12T14:08:44.390Z,27.51
2022-09-12T14:11:12.956Z,27.14
2022-09-12T14:13:40.622Z,26.47
2022-09-12T14:16:12.321Z,27.10
2022-09-12T14:18:41.884Z,26.77
2022-09-12T14:21:12.665Z,27.58
2022-09-12T14:23:42.476Z,27.42
2022-09-12T14:26:12.437Z,26.61
2022-09-12T14:28:41.883Z,27.26
2022-09-12T14:31:24.767Z,27.34
2022-09-12T14:33:53.431Z,27.01
2022-09-12T14:36:25.731Z,27.51
2022-09-12T14:38:55.409Z,27.68
2022-09-12T14:41:25.523Z,27.63
2022-09-12T14:43:55.753Z,27.30
2022-09-12T14:46:28.401Z,27.29
2022-09-12T14:48:58.765Z,27.41
2022-09-12T14:51:28.603Z,27.72
2022-09-12T14:53:56.125Z,27.40
2022-09-12T14:56:38.920Z,27.64
2022-09-12T14:59:27.475Z,27.54
2022-09-12T15:02:19.392Z,27.61
2022-09-12T15:04:48.289Z,27.59
2022-09-12T15:07:16.184Z,27.75
2022-09-12T15:09:47.266Z,27.92
2022-09-12T15:12:15.001Z,28.02
2022-09-12T15:14:42.729Z,27.43
2022-09-12T15:17:10.193Z,27.91
2022-09-12T15:19:38.989Z,27.13
2022-09-12T15:22:06.511Z,26.80
2022-09-12T15:24:34.002Z,27.24
2022-09-12T15:27:01.629Z,27.39
2022-09-12T15:29:29.058Z,27.10
2022-09-12T15:31:56.530Z,27.32
2022-09-12T15:34:24.877Z,26.65
2022-09-12T15:36:53.756Z,26.63
2022-09-12T15:39:21.365Z,26.78
2022-09-12T15:41:49.357Z,26.41
2022-09-12T15:44:16.877Z,26.26
2022-09-12T15:46:44.495Z,26.10
2022-09-12T15:49:11.981Z,26.32
2022-09-12T15:51:40.033Z,26.38
2022-09-12T15:54:11.933Z,26.30
2022-09-12T15:56:39.450Z,25.60
2022-09-12T15:59:06.981Z,25.79
2022-09-12T16:01:34.526Z,24.68
2022-09-12T16:04:03.260Z,25.12
2022-09-12T16:06:36.782Z,25.02
2022-09-12T16:09:04.965Z,24.44
2022-09-12T16:11:33.889Z,24.49
2022-09-12T16:14:01.369Z,24.12
2022-09-12T16:16:28.854Z,23.69
2022-09-12T16:18:56.415Z,23.71
2022-09-12T16:21:26.102Z,23.95
2022-09-12T16:23:54.073Z,23.86
2022-09-12T16:26:25.825Z,23.77
2022-09-12T16:28:56.975Z,23.89
2022-09-12T16:31:28.868Z,23.85
2022-09-12T16:33:56.830Z,23.89
2022-09-12T16:36:25.178Z,23.76
2022-09-12T16:38:54.225Z,23.74
2022-09-12T16:41:24.574Z,23.59
2022-09-12T16:43:52.780Z,23.57
2022-09-12T16:46:26.148Z,23.36
2022-09-12T16:48:55.619Z,23.20
2022-09-12T16:51:25.845Z,22.69
2022-09-12T16:53:53.518Z,22.51
2022-09-12T16:56:21.607Z,22.56
2022-09-12T16:58:49.444Z,22.40
2022-09-12T17:01:19.039Z,22.42
2022-09-12T17:03:48.042Z,22.21
2022-09-12T17:06:18.000Z,22.20
2022-09-12T17:08:48.452Z,21.80
2022-09-12T17:11:18.217Z,21.72
2022-09-12T17:14:03.704Z,21.70
2022-09-12T17:16:32.921Z,21.62
2022-09-12T17:19:01.752Z,21.63
2022-09-12T17:21:29.356Z,21.51
2022-09-12T17:23:57.166Z,21.29
2022-09-12T17:26:24.633Z,21.22
2022-09-12T17:28:52.161Z,21.11
2022-09-12T17:31:19.757Z,20.81
2022-09-12T17:33:47.859Z,20.79
2022-09-12T17:36:17.853Z,20.60
2022-09-12T17:38:46.337Z,20.43
2022-09-12T17:41:17.527Z,20.31
2022-09-12T17:43:46.250Z,20.21
2022-09-12T17:46:14.669Z,19.75
2022-09-12T17:48:42.629Z,19.78
2022-09-12T17:51:11.206Z,19.64
2022-09-12T17:53:40.358Z,19.17
2022-09-12T17:56:08.915Z,19.22
2022-09-12T17:58:37.083Z,19.08
2022-09-12T18:01:23.515Z,18.82
2022-09-12T18:03:51.858Z,18.64
2022-09-12T18:06:19.579Z,18.71
2022-09-12T18:08:48.428Z,18.61
2022-09-12T18:11:15.909Z,18.55
2022-09-12T18:13:43.461Z,18.44
2022-09-12T18:16:12.397Z,18.32
2022-09-12T18:18:40.335Z,18.05
2022-09-12T18:21:08.945Z,17.94
2022-09-12T18:23:36.564Z,17.93
2022-09-12T18:26:06.921Z,17.84
2022-09-12T18:28:34.986Z,17.69
2022-09-12T18:31:02.736Z,17.66
2022-09-12T18:33:30.305Z,17.61
2022-09-12T18:35:57.775Z,17.50
2022-09-12T18:38:25.346Z,17.42
2022-09-12T18:41:02.401Z,17.41
2022-09-12T18:43:31.622Z,17.28
2022-09-12T18:46:04.030Z,17.21
2022-09-12T18:48:32.655Z,17.20
2022-09-12T18:51:05.770Z,17.22
2022-09-12T18:53:36.301Z,17.24
2022-09-12T18:56:06.155Z,17.05
2022-09-12T18:58:35.213Z,17.09
2022-09-12T19:01:09.891Z,17.20
2022-09-12T19:03:37.599Z,17.32
2022-09-12T19:06:09.704Z,17.30
2022-09-12T19:08:37.282Z,17.40
2022-09-12T19:11:05.349Z,17.53
2022-09-12T19:13:33.057Z,17.63
2022-09-12T19:16:03.040Z,17.78
2022-09-12T19:18:31.239Z,17.97
2022-09-12T19:20:58.743Z,18.04
2022-09-12T19:23:26.867Z,18.22
2022-09-12T19:25:57.665Z,18.22
2022-09-12T19:28:26.799Z,18.38
2022-09-12T19:30:54.739Z,18.42
2022-09-12T19:33:25.668Z,18.49
2022-09-12T19:35:53.186Z,18.60
2022-09-12T19:38:20.706Z,18.68
2022-09-12T19:40:56.626Z,18.74
2022-09-12T19:43:24.362Z,18.88
2022-09-12T19:45:52.822Z,18.92
2022-09-12T19:48:22.322Z,18.91
2022-09-12T19:50:51.444Z,18.90
2022-09-12T19:53:19.235Z,18.95
2022-09-12T19:55:47.227Z,18.99
2022-09-12T19:58:14.783Z,18.94
2022-09-12T20:00:42.265Z,18.96
2022-09-12T20:03:09.728Z,18.93
2022-09-12T20:05:42.026Z,18.92
2022-09-12T20:08:11.554Z,18.94
2022-09-12T20:10:39.038Z,19.01
2022-09-12T20:13:06.633Z,18.91
2022-09-12T20:15:34.186Z,18.98
2022-09-12T20:18:01.710Z,18.84
2022-09-12T20:20:29.226Z,18.77
2022-09-12T20:22:56.729Z,18.77
2022-09-12T20:25:25.769Z,18.77
2022-09-12T20:27:56.946Z,18.72
2022-09-12T20:30:27.067Z,18.68
2022-09-12T20:32:54.564Z,18.64
2022-09-12T20:35:22.680Z,18.64
2022-09-12T20:37:50.250Z,18.57
2022-09-12T20:40:18.094Z,18.65
2022-09-12T20:42:47.013Z,18.62
2022-09-12T20:45:14.760Z,18.61
2022-09-12T20:47:42.248Z,18.53
2022-09-12T20:50:10.445Z,18.64
2022-09-12T20:52:37.922Z,18.72
2022-09-12T20:55:06.383Z,18.62
2022-09-12T20:57:34.170Z,18.64
2022-09-12T21:00:03.582Z,18.69
2022-09-12T21:02:31.119Z,18.66
2022-09-12T21:04:58.798Z,18.72
2022-09-12T21:07:26.338Z,18.62
2022-09-12T21:09:54.235Z,18.46
2022-09-12T21:12:28.334Z,18.51
2022-09-12T21:14:55.794Z,18.57
2022-09-12T21:17:26.879Z,18.63
2022-09-12T21:19:54.511Z,18.62
2022-09-12T21:22:22.154Z,18.66
2022-09-12T21:24:49.733Z,18.57
2022-09-12T21:27:17.202Z,18.49
2022-09-12T21:29:44.673Z,18.50
2022-09-12T21:32:14.376Z,18.67
2022-09-12T21:34:43.338Z,18.61
2022-09-12T21:37:10.820Z,18.73
2022-09-12T21:39:38.320Z,18.82
2022-09-12T21:42:05.899Z,18.72
2022-09-12T21:44:33.449Z,18.71
2022-09-12T21:47:00.914Z,18.77
2022-09-12T21:49:28.542Z,18.76
2022-09-12T21:51:57.638Z,18.78
2022-09-12T21:54:25.103Z,18.84
2022-09-12T21:56:52.981Z,18.94
2022-09-12T21:59:20.574Z,18.95
2022-09-12T22:01:48.403Z,18.79
2022-09-12T22:04:16.009Z,18.64
2022-09-12T22:06:43.602Z,18.74
2022-09-12T22:09:12.509Z,18.71
2022-09-12T22:11:40.034Z,18.57
2022-09-12T22:14:07.478Z,18.53
2022-09-12T22:16:34.961Z,18.45
2022-09-12T22:19:02.444Z,18.47
2022-09-12T22:21:30.586Z,18.29
2022-09-12T22:24:15.392Z,18.22
2022-09-12T22:26:46.098Z,18.09
2022-09-12T22:29:14.478Z,18.18
2022-09-12T22:31:42.485Z,17.95
2022-09-12T22:34:10.000Z,18.05
2022-09-12T22:36:39.141Z,18.11
2022-09-12T22:39:07.103Z,18.12
2022-09-12T22:41:34.672Z,18.07
2022-09-12T22:44:03.700Z,17.97
2022-09-12T22:46:31.759Z,18.04
2022-09-12T22:48:59.329Z,18.10
2022-09-12T22:51:26.891Z,18.06
2022-09-12T22:53:54.426Z,18.11
2022-09-12T22:56:22.457Z,18.26
2022-09-12T22:58:50.754Z,18.22
2022-09-12T23:01:20.147Z,18.08
2022-09-12T23:03:47.706Z,18.22
2022-09-12T23:06:15.318Z,18.12
2022-09-12T23:08:43.178Z,18.15
2022-09-12T23:11:12.766Z,18.07
2022-09-12T23:13:42.829Z,18.16
2022-09-12T23:16:14.648Z,18.17
2022-09-12T23:18:43.651Z,18.21
2022-09-12T23:21:13.195Z,18.08
2022-09-12T23:23:40.919Z,18.17
2022-09-12T23:26:10.898Z,18.19
2022-09-12T23:28:40.212Z,18.33
2022-09-12T23:31:09.397Z,18.24
2022-09-12T23:33:37.555Z,18.07
2022-09-12T23:36:12.572Z,18.28
2022-09-12T23:38:40.069Z,18.17
2022-09-12T23:41:07.940Z,18.25
2022-09-12T23:43:35.753Z,18.18
2022-09-12T23:46:04.476Z,18.17
2022-09-12T23:48:33.016Z,18.17
2022-09-12T23:51:00.728Z,18.15
2022-09-12T23:53:29.584Z,18.21
2022-09-12T23:55:57.120Z,18.13
2022-09-12T23:58:24.991Z,18.14
